createdAt,value
2019-05-29T00:00:19.827Z,12.50
2019-05-29T00:02:50.595Z,12.43
2019-05-29T00:05:21.356Z,12.25
2019-05-29T00:07:52.134Z,12.41
2019-05-29T00:10:22.891Z,12.45
2019-05-29T00:12:53.663Z,12.44
2019-05-29T00:15:24.431Z,12.35
2019-05-29T00:17:55.205Z,12.54
2019-05-29T00:20:25.975Z,12.41
2019-05-29T00:22:56.812Z,12.35
2019-05-29T00:25:27.619Z,12.37
2019-05-29T00:27:58.411Z,12.36
2019-05-29T00:30:29.178Z,12.44
2019-05-29T00:32:59.932Z,12.43
2019-05-29T00:35:30.707Z,12.49
2019-05-29T00:38:01.469Z,12.37
2019-05-29T00:40:32.241Z,12.38
2019-05-29T00:43:03.004Z,12.48
2019-05-29T00:45:33.784Z,12.44
2019-05-29T00:48:04.544Z,12.44
2019-05-29T00:50:35.571Z,12.29
2019-05-29T00:53:06.358Z,12.20
2019-05-29T00:55:37.134Z,12.11
2019-05-29T00:58:08.809Z,12.34
2019-05-29T01:00:39.584Z,12.27
2019-05-29T01:03:11.552Z,12.63
2019-05-29T01:05:42.448Z,12.18
2019-05-29T01:08:14.453Z,12.34
2019-05-29T01:10:45.326Z,12.21
2019-05-29T01:13:17.203Z,12.13
2019-05-29T01:15:48.185Z,12.10
2019-05-29T01:18:20.010Z,12.26
2019-05-29T01:20:50.816Z,12.24
2019-05-29T01:23:22.441Z,12.38
2019-05-29T01:25:53.661Z,12.34
2019-05-29T01:28:24.422Z,12.21
2019-05-29T01:30:55.198Z,12.43
2019-05-29T01:33:25.982Z,12.64
2019-05-29T01:35:56.756Z,12.51
2019-05-29T01:38:27.682Z,12.42
2019-05-29T01:40:58.507Z,12.64
2019-05-29T01:43:29.271Z,12.23
2019-05-29T01:46:00.044Z,12.27
2019-05-29T01:48:30.811Z,12.15
2019-05-29T01:51:01.689Z,12.45
2019-05-29T01:53:32.465Z,12.56
2019-05-29T01:56:03.246Z,12.30
2019-05-29T01:58:34.001Z,11.98
2019-05-29T02:01:04.776Z,12.13
2019-05-29T02:03:35.537Z,12.34
2019-05-29T02:06:06.308Z,12.47
2019-05-29T02:08:37.067Z,12.46
2019-05-29T02:11:07.842Z,12.50
2019-05-29T02:13:38.625Z,12.05
2019-05-29T02:16:09.392Z,12.01
2019-05-29T02:18:40.156Z,12.03
2019-05-29T02:21:10.937Z,12.02
2019-05-29T02:23:41.695Z,12.23
2019-05-29T02:26:12.474Z,12.13
2019-05-29T02:28:43.234Z,12.15
2019-05-29T02:31:14.016Z,12.47
2019-05-29T02:33:44.772Z,12.06
2019-05-29T02:36:15.648Z,12.00
2019-05-29T02:38:46.617Z,11.85
2019-05-29T02:41:19.141Z,11.99
2019-05-29T02:43:50.069Z,12.13
2019-05-29T02:46:21.748Z,12.20
2019-05-29T02:48:53.015Z,11.94
2019-05-29T02:51:24.321Z,12.04
2019-05-29T02:53:55.558Z,12.01
2019-05-29T02:56:26.990Z,12.10
2019-05-29T02:58:58.298Z,12.29
2019-05-29T03:01:29.744Z,12.09
2019-05-29T03:04:00.684Z,12.13
2019-05-29T03:06:32.334Z,12.01
2019-05-29T03:09:04.911Z,12.01
2019-05-29T03:11:35.792Z,12.23
2019-05-29T03:14:06.840Z,12.28
2019-05-29T03:16:37.622Z,12.21
2019-05-29T03:19:08.384Z,12.07
2019-05-29T03:21:39.158Z,12.20
2019-05-29T03:24:09.922Z,12.10
2019-05-29T03:26:40.710Z,12.09
2019-05-29T03:29:11.464Z,12.10
2019-05-29T03:31:47.206Z,12.06
2019-05-29T03:34:14.925Z,12.08
2019-05-29T03:36:48.295Z,12.29
2019-05-29T03:39:18.405Z,12.20
2019-05-29T03:41:49.179Z,12.37
2019-05-29T03:44:19.937Z,12.32
2019-05-29T03:46:50.725Z,12.12
2019-05-29T03:49:21.492Z,12.35
2019-05-29T03:51:52.257Z,12.27
2019-05-29T03:54:23.033Z,12.06
2019-05-29T03:56:53.823Z,12.08
2019-05-29T03:59:24.606Z,11.70
2019-05-29T04:01:55.400Z,12.00
2019-05-29T04:04:26.939Z,12.22
2019-05-29T04:06:57.850Z,12.35
2019-05-29T04:09:29.202Z,12.47
2019-05-29T04:12:00.124Z,12.36
2019-05-29T04:14:31.650Z,12.12
2019-05-29T04:17:02.665Z,12.13
2019-05-29T04:19:34.965Z,12.22
2019-05-29T04:22:10.553Z,12.17
2019-05-29T04:24:41.355Z,12.14
2019-05-29T04:27:13.006Z,12.19
2019-05-29T04:29:44.289Z,12.51
2019-05-29T04:32:15.087Z,12.31
2019-05-29T04:34:45.858Z,12.28
2019-05-29T04:37:16.658Z,12.08
2019-05-29T04:39:47.445Z,12.27
2019-05-29T04:42:18.237Z,12.42
2019-05-29T04:44:49.022Z,12.39
2019-05-29T04:47:19.805Z,12.08
2019-05-29T04:49:50.710Z,12.10
2019-05-29T04:52:21.568Z,12.35
2019-05-29T04:54:52.318Z,12.48
2019-05-29T04:57:23.102Z,12.31
2019-05-29T04:59:53.882Z,12.41
2019-05-29T05:02:24.712Z,12.42
2019-05-29T05:04:55.480Z,12.24
2019-05-29T05:07:26.244Z,12.37
2019-05-29T05:09:57.020Z,12.56
2019-05-29T05:12:27.780Z,12.23
2019-05-29T05:14:58.773Z,12.48
2019-05-29T05:17:29.751Z,12.58
2019-05-29T05:20:00.540Z,12.58
2019-05-29T05:22:32.055Z,12.63
2019-05-29T05:25:06.209Z,12.49
2019-05-29T05:27:36.992Z,12.83
2019-05-29T05:30:08.995Z,13.08
2019-05-29T05:32:41.100Z,13.15
2019-05-29T05:35:14.369Z,13.28
2019-05-29T05:37:44.814Z,13.42
2019-05-29T05:40:15.607Z,13.41
2019-05-29T05:42:46.426Z,13.24
2019-05-29T05:45:17.597Z,13.34
2019-05-29T05:47:56.817Z,13.35
2019-05-29T05:50:21.285Z,13.57
2019-05-29T05:52:52.063Z,13.33
2019-05-29T05:55:22.836Z,13.50
2019-05-29T05:57:53.599Z,13.64
2019-05-29T06:00:30.064Z,13.76
2019-05-29T06:03:01.027Z,13.77
2019-05-29T06:05:32.154Z,13.75
2019-05-29T06:08:03.187Z,13.80
2019-05-29T06:10:34.143Z,13.72
2019-05-29T06:13:04.940Z,13.67
2019-05-29T06:15:36.503Z,13.44
2019-05-29T06:18:20.629Z,13.80
2019-05-29T06:20:40.990Z,13.96
2019-05-29T06:23:11.839Z,13.59
2019-05-29T06:25:43.893Z,13.60
2019-05-29T06:28:14.875Z,13.70
2019-05-29T06:30:45.707Z,13.67
2019-05-29T06:33:16.461Z,13.51
2019-05-29T06:35:47.243Z,13.56
2019-05-29T06:38:18.017Z,13.46
2019-05-29T06:40:48.783Z,13.85
2019-05-29T06:43:23.618Z,13.98
2019-05-29T06:45:54.498Z,13.98
2019-05-29T06:48:57.649Z,14.07
2019-05-29T06:51:00.301Z,13.86
2019-05-29T06:53:31.067Z,14.05
2019-05-29T06:56:02.785Z,14.00
2019-05-29T06:58:34.038Z,14.17
2019-05-29T07:01:04.829Z,14.17
2019-05-29T07:03:35.702Z,14.10
2019-05-29T07:06:06.525Z,14.24
2019-05-29T07:08:42.374Z,14.21
2019-05-29T07:11:10.047Z,14.46
2019-05-29T07:13:43.262Z,13.93
2019-05-29T07:16:13.494Z,13.93
2019-05-29T07:19:20.636Z,14.26
2019-05-29T07:21:17.160Z,14.51
2019-05-29T07:23:48.770Z,14.59
2019-05-29T07:26:19.903Z,14.58
2019-05-29T07:29:07.320Z,14.28
2019-05-29T07:31:23.361Z,14.16
2019-05-29T07:33:54.161Z,14.29
2019-05-29T07:36:24.942Z,14.28
2019-05-29T07:39:02.995Z,14.42
2019-05-29T07:41:28.391Z,14.76
2019-05-29T07:43:59.171Z,14.53
2019-05-29T07:46:30.055Z,15.02
2019-05-29T07:49:00.816Z,15.03
2019-05-29T07:51:31.605Z,15.26
2019-05-29T07:54:02.382Z,14.90
2019-05-29T07:56:33.153Z,14.72
2019-05-29T07:59:04.051Z,14.64
2019-05-29T08:01:34.826Z,14.61
2019-05-29T08:04:05.604Z,14.78
2019-05-29T08:06:36.383Z,14.55
2019-05-29T08:09:07.171Z,14.75
2019-05-29T08:11:39.384Z,14.87
2019-05-29T08:14:10.317Z,14.39
2019-05-29T08:16:41.915Z,14.13
2019-05-29T08:19:12.917Z,14.18
2019-05-29T08:21:44.296Z,14.00
2019-05-29T08:24:15.176Z,13.80
2019-05-29T08:26:46.825Z,13.80
2019-05-29T08:29:17.735Z,13.88
2019-05-29T08:31:48.975Z,14.18
2019-05-29T08:34:19.888Z,14.13
2019-05-29T08:37:05.945Z,14.30
2019-05-29T08:39:35.523Z,14.08
2019-05-29T08:42:21.218Z,13.85
2019-05-29T08:44:28.878Z,13.71
2019-05-29T08:47:09.716Z,13.77
2019-05-29T08:49:32.352Z,13.86
2019-05-29T08:52:11.713Z,13.93
2019-05-29T08:54:35.919Z,13.81
2019-05-29T08:57:06.698Z,13.80
2019-05-29T08:59:37.455Z,13.78
2019-05-29T09:02:08.240Z,13.74
2019-05-29T09:04:39.203Z,13.84
2019-05-29T09:07:10.026Z,14.14
2019-05-29T09:09:40.787Z,14.23
2019-05-29T09:12:11.565Z,14.21
2019-05-29T09:14:42.347Z,14.07
2019-05-29T09:17:14.619Z,14.16
2019-05-29T09:19:45.481Z,14.10
2019-05-29T09:22:16.520Z,14.14
2019-05-29T09:24:47.329Z,13.94
2019-05-29T09:27:19.126Z,13.80
2019-05-29T09:29:50.068Z,13.59
2019-05-29T09:32:46.470Z,13.51
2019-05-29T09:34:53.561Z,13.50
2019-05-29T09:37:24.636Z,13.43
2019-05-29T09:39:55.511Z,13.38
2019-05-29T09:42:26.281Z,13.46
2019-05-29T09:44:57.055Z,13.28
2019-05-29T09:47:27.835Z,13.14
2019-05-29T09:49:58.599Z,13.19
2019-05-29T09:52:30.790Z,12.87
2019-05-29T09:55:03.483Z,13.01
2019-05-29T09:57:34.261Z,13.38
2019-05-29T10:00:08.937Z,13.49
2019-05-29T10:02:39.704Z,13.81
2019-05-29T10:05:10.576Z,13.52
2019-05-29T10:07:41.352Z,13.54
2019-05-29T10:10:12.911Z,13.81
2019-05-29T10:12:43.699Z,13.60
2019-05-29T10:15:15.103Z,13.51
2019-05-29T10:17:46.075Z,13.71
2019-05-29T10:20:17.236Z,13.52
2019-05-29T10:22:48.014Z,13.78
2019-05-29T10:25:19.178Z,14.05
2019-05-29T10:27:49.895Z,14.11
2019-05-29T10:30:22.674Z,14.21
2019-05-29T10:32:53.605Z,14.31
2019-05-29T10:35:24.419Z,14.27
2019-05-29T10:37:55.194Z,14.08
2019-05-29T10:40:25.960Z,14.04
2019-05-29T10:42:56.766Z,14.35
2019-05-29T10:45:27.509Z,14.55
2019-05-29T10:47:58.282Z,14.46
2019-05-29T10:50:29.069Z,14.03
2019-05-29T10:52:59.839Z,13.81
2019-05-29T10:55:30.629Z,14.03
2019-05-29T10:58:01.408Z,14.11
2019-05-29T11:00:32.183Z,14.44
2019-05-29T11:03:03.373Z,14.71
2019-05-29T11:05:34.148Z,14.88
2019-05-29T11:08:04.926Z,15.02
2019-05-29T11:10:35.704Z,15.01
2019-05-29T11:13:06.486Z,15.39
2019-05-29T11:15:37.246Z,14.84
2019-05-29T11:18:08.042Z,14.88
2019-05-29T11:20:38.823Z,15.13
2019-05-29T11:23:09.605Z,15.01
2019-05-29T11:25:40.980Z,15.43
2019-05-29T11:28:11.767Z,14.79
2019-05-29T11:30:42.559Z,15.19
2019-05-29T11:33:13.337Z,15.69
2019-05-29T11:35:58.561Z,15.93
2019-05-29T11:38:16.795Z,15.91
2019-05-29T11:40:47.746Z,15.91
2019-05-29T11:43:18.604Z,15.75
2019-05-29T11:45:51.112Z,15.30
2019-05-29T11:48:22.077Z,15.06
2019-05-29T11:50:54.102Z,15.06
2019-05-29T11:53:25.049Z,14.64
2019-05-29T11:55:56.130Z,14.98
2019-05-29T11:58:31.263Z,15.23
2019-05-29T12:00:59.676Z,14.85
2019-05-29T12:03:30.457Z,14.80
2019-05-29T12:06:03.142Z,14.69
2019-05-29T12:08:33.919Z,14.89
2019-05-29T12:11:07.009Z,14.72
2019-05-29T12:13:37.391Z,14.23
2019-05-29T12:16:08.152Z,14.46
2019-05-29T12:18:38.940Z,14.65
2019-05-29T12:21:09.704Z,14.65
2019-05-29T12:23:40.481Z,14.61
2019-05-29T12:26:21.849Z,14.69
2019-05-29T12:28:44.017Z,14.67
2019-05-29T12:31:14.833Z,14.84
2019-05-29T12:33:45.604Z,15.34
2019-05-29T12:36:16.374Z,15.77
2019-05-29T12:38:47.152Z,16.64
2019-05-29T12:41:18.178Z,16.86
2019-05-29T12:43:48.980Z,15.71
2019-05-29T12:46:19.751Z,15.71
2019-05-29T12:48:50.524Z,15.42
2019-05-29T12:51:21.290Z,15.42
2019-05-29T12:53:53.737Z,15.51
2019-05-29T12:56:24.704Z,15.43
2019-05-29T12:58:56.076Z,15.30
2019-05-29T13:01:26.966Z,15.07
2019-05-29T13:03:58.625Z,14.78
2019-05-29T13:06:29.566Z,14.78
2019-05-29T13:09:00.535Z,14.48
2019-05-29T13:11:31.437Z,15.00
2019-05-29T13:14:02.739Z,15.02
2019-05-29T13:16:33.589Z,15.28
2019-05-29T13:19:05.383Z,15.28
2019-05-29T13:21:36.350Z,14.86
2019-05-29T13:24:11.236Z,14.86
2019-05-29T13:26:39.805Z,15.08
2019-05-29T13:29:10.593Z,15.08
2019-05-29T13:31:41.365Z,15.28
2019-05-29T13:34:12.138Z,15.37
2019-05-29T13:36:43.011Z,15.47
2019-05-29T13:39:13.936Z,15.57
2019-05-29T13:41:44.731Z,15.37
2019-05-29T13:44:15.520Z,15.52
2019-05-29T13:46:46.286Z,15.54
2019-05-29T13:49:17.079Z,15.40
2019-05-29T13:51:47.855Z,15.40
2019-05-29T13:54:18.727Z,15.89
2019-05-29T13:56:49.551Z,15.50
2019-05-29T13:59:20.313Z,15.28
2019-05-29T14:01:51.087Z,15.02
2019-05-29T14:04:21.884Z,15.01
2019-05-29T14:06:53.198Z,15.14
2019-05-29T14:09:24.404Z,15.35
2019-05-29T14:11:55.287Z,15.66
2019-05-29T14:14:26.071Z,15.66
2019-05-29T14:16:56.836Z,15.60
2019-05-29T14:19:27.608Z,15.20
2019-05-29T14:21:58.438Z,15.14
2019-05-29T14:24:30.389Z,15.08
2019-05-29T14:27:01.693Z,15.17
2019-05-29T14:29:32.677Z,15.17
2019-05-29T14:32:04.911Z,15.20
2019-05-29T14:34:35.888Z,15.03
2019-05-29T14:37:07.938Z,15.01
2019-05-29T14:39:38.844Z,15.01
2019-05-29T14:42:10.159Z,14.82
2019-05-29T14:44:40.999Z,14.96
2019-05-29T14:47:13.286Z,15.01
2019-05-29T14:49:44.280Z,15.26
2019-05-29T14:52:15.049Z,15.49
2019-05-29T14:54:45.843Z,15.38
2019-05-29T14:57:24.782Z,15.05
2019-05-29T14:59:49.471Z,14.73
2019-05-29T15:02:23.940Z,14.61
2019-05-29T15:04:53.110Z,14.73
2019-05-29T15:07:23.925Z,14.56
2019-05-29T15:09:54.759Z,14.49
2019-05-29T15:12:25.523Z,14.64
2019-05-29T15:14:56.297Z,14.56
2019-05-29T15:17:27.072Z,14.84
2019-05-29T15:19:57.862Z,14.79
2019-05-29T15:22:28.642Z,14.80
2019-05-29T15:25:10.683Z,14.70
2019-05-29T15:27:32.427Z,14.99
2019-05-29T15:30:06.146Z,15.06
2019-05-29T15:32:37.083Z,15.32
2019-05-29T15:35:12.776Z,14.91
2019-05-29T15:37:40.888Z,14.98
2019-05-29T15:40:13.178Z,14.72
2019-05-29T15:42:43.992Z,14.78
2019-05-29T15:45:15.965Z,14.80
2019-05-29T15:47:46.862Z,14.96
2019-05-29T15:50:18.263Z,15.10
2019-05-29T15:52:49.015Z,15.09
2019-05-29T15:55:29.721Z,15.26
2019-05-29T15:57:52.463Z,15.09
2019-05-29T16:00:23.549Z,15.02
2019-05-29T16:02:54.304Z,15.07
2019-05-29T16:05:25.076Z,14.92
2019-05-29T16:07:55.840Z,15.24
2019-05-29T16:10:26.626Z,15.41
2019-05-29T16:12:57.402Z,14.89
2019-05-29T16:15:28.176Z,15.04
2019-05-29T16:17:58.940Z,14.87
2019-05-29T16:20:29.736Z,15.13
2019-05-29T16:23:00.501Z,15.13
2019-05-29T16:25:40.180Z,15.04
2019-05-29T16:28:03.946Z,15.31
2019-05-29T16:30:34.731Z,15.22
2019-05-29T16:33:05.493Z,15.15
2019-05-29T16:35:37.612Z,15.36
2019-05-29T16:38:08.662Z,15.03
2019-05-29T16:40:39.443Z,15.21
2019-05-29T16:43:10.206Z,14.99
2019-05-29T16:45:40.999Z,15.08
2019-05-29T16:48:12.958Z,15.49
2019-05-29T16:50:43.787Z,15.66
2019-05-29T16:53:14.748Z,15.95
2019-05-29T16:55:53.677Z,15.86
2019-05-29T16:58:19.751Z,15.94
2019-05-29T17:00:50.647Z,15.94
2019-05-29T17:03:21.727Z,16.23
2019-05-29T17:05:52.599Z,15.97
2019-05-29T17:08:24.625Z,15.97
2019-05-29T17:10:55.560Z,16.22
2019-05-29T17:13:26.338Z,16.10
2019-05-29T17:15:57.114Z,15.78
2019-05-29T17:18:27.875Z,15.74
2019-05-29T17:20:58.660Z,16.07
2019-05-29T17:23:29.528Z,16.00
2019-05-29T17:26:10.115Z,15.73
2019-05-29T17:28:33.028Z,15.51
2019-05-29T17:31:03.886Z,15.42
2019-05-29T17:33:34.649Z,15.67
2019-05-29T17:36:05.436Z,15.84
2019-05-29T17:38:36.198Z,15.62
2019-05-29T17:41:06.987Z,15.32
2019-05-29T17:43:37.759Z,15.37
2019-05-29T17:46:08.534Z,15.16
2019-05-29T17:48:39.295Z,15.46
2019-05-29T17:51:10.110Z,15.04
2019-05-29T17:53:40.913Z,15.13
2019-05-29T17:56:25.290Z,15.43
2019-05-29T17:58:44.720Z,15.17
2019-05-29T18:01:16.141Z,15.34
2019-05-29T18:03:47.009Z,14.97
2019-05-29T18:06:18.333Z,14.97
2019-05-29T18:08:49.194Z,15.03
2019-05-29T18:11:21.090Z,15.03
2019-05-29T18:13:52.106Z,14.97
2019-05-29T18:16:23.548Z,14.75
2019-05-29T18:18:54.517Z,14.71
2019-05-29T18:21:25.780Z,14.71
2019-05-29T18:23:56.696Z,14.65
2019-05-29T18:26:42.625Z,14.69
2019-05-29T18:29:00.175Z,14.70
2019-05-29T18:31:30.959Z,14.68
2019-05-29T18:34:01.715Z,14.58
2019-05-29T18:36:32.496Z,14.70
2019-05-29T18:39:05.860Z,14.92
2019-05-29T18:41:36.642Z,14.56
2019-05-29T18:44:07.410Z,14.45
2019-05-29T18:46:38.352Z,15.02
2019-05-29T18:49:09.147Z,14.90
2019-05-29T18:51:39.928Z,14.62
2019-05-29T18:54:10.704Z,14.64
2019-05-29T18:56:41.525Z,14.88
2019-05-29T18:59:12.288Z,14.75
2019-05-29T19:01:43.084Z,14.45
2019-05-29T19:04:13.853Z,14.62
2019-05-29T19:06:44.640Z,14.41
2019-05-29T19:09:15.517Z,14.34
2019-05-29T19:11:46.308Z,14.14
2019-05-29T19:14:17.075Z,14.52
2019-05-29T19:16:47.863Z,14.43
2019-05-29T19:19:18.642Z,14.29
2019-05-29T19:21:49.421Z,14.43
2019-05-29T19:24:20.184Z,14.45
2019-05-29T19:26:50.967Z,14.47
2019-05-29T19:29:22.961Z,14.79
2019-05-29T19:31:53.827Z,14.85
2019-05-29T19:34:25.237Z,14.53
2019-05-29T19:36:56.095Z,14.34
2019-05-29T19:39:27.994Z,14.42
2019-05-29T19:41:58.860Z,14.25
2019-05-29T19:44:30.381Z,14.30
2019-05-29T19:47:01.353Z,14.66
2019-05-29T19:49:35.189Z,14.26
2019-05-29T19:52:06.173Z,14.33
2019-05-29T19:54:36.973Z,14.28
2019-05-29T19:57:08.136Z,14.23
2019-05-29T19:59:38.899Z,14.32
2019-05-29T20:02:09.676Z,14.32
2019-05-29T20:04:40.450Z,14.30
2019-05-29T20:07:11.232Z,14.34
2019-05-29T20:09:42.002Z,14.24
2019-05-29T20:12:12.802Z,14.38
2019-05-29T20:14:43.540Z,14.35
2019-05-29T20:17:14.345Z,14.21
2019-05-29T20:19:45.115Z,14.27
2019-05-29T20:22:15.890Z,14.14
2019-05-29T20:24:46.673Z,14.09
2019-05-29T20:27:17.439Z,14.17
2019-05-29T20:29:48.197Z,14.09
2019-05-29T20:32:18.987Z,14.19
2019-05-29T20:34:49.756Z,14.11
2019-05-29T20:37:20.544Z,14.11
2019-05-29T20:39:51.337Z,14.14
2019-05-29T20:42:22.095Z,14.06
2019-05-29T20:44:52.861Z,14.22
2019-05-29T20:47:23.641Z,14.22
2019-05-29T20:49:54.420Z,14.44
2019-05-29T20:52:25.267Z,14.23
2019-05-29T20:54:58.634Z,14.16
2019-05-29T20:57:28.754Z,14.47
2019-05-29T20:59:59.534Z,14.21
2019-05-29T21:02:30.313Z,14.36
2019-05-29T21:05:02.082Z,14.36
2019-05-29T21:07:32.928Z,14.37
2019-05-29T21:10:04.490Z,14.22
2019-05-29T21:12:35.282Z,14.23
2019-05-29T21:15:06.376Z,14.12
2019-05-29T21:17:37.871Z,14.05
2019-05-29T21:20:08.983Z,14.16
2019-05-29T21:22:40.652Z,13.79
2019-05-29T21:25:17.178Z,13.76
2019-05-29T21:27:49.696Z,13.81
2019-05-29T21:30:22.702Z,13.98
2019-05-29T21:32:54.393Z,14.13
2019-05-29T21:35:25.248Z,13.96
2019-05-29T21:37:56.027Z,13.85
2019-05-29T21:40:26.797Z,14.00
2019-05-29T21:42:57.579Z,13.90
2019-05-29T21:45:31.513Z,13.76
2019-05-29T21:48:02.398Z,13.74
2019-05-29T21:50:33.195Z,13.64
2019-05-29T21:53:06.044Z,13.76
2019-05-29T21:55:37.536Z,13.79
2019-05-29T21:58:08.512Z,13.93
2019-05-29T22:00:42.263Z,13.78
2019-05-29T22:03:13.261Z,13.72
2019-05-29T22:05:44.739Z,13.69
2019-05-29T22:08:15.728Z,13.73
2019-05-29T22:10:46.499Z,13.73
2019-05-29T22:13:17.273Z,13.63
2019-05-29T22:15:48.068Z,13.75
2019-05-29T22:18:18.835Z,13.67
2019-05-29T22:20:50.953Z,14.20
2019-05-29T22:23:21.925Z,13.69
2019-05-29T22:25:53.166Z,13.76
2019-05-29T22:28:24.087Z,13.96
2019-05-29T22:30:55.344Z,14.09
2019-05-29T22:33:26.130Z,13.57
2019-05-29T22:35:57.495Z,13.80
2019-05-29T22:38:28.378Z,13.52
2019-05-29T22:40:59.692Z,13.03
2019-05-29T22:43:30.548Z,13.28
2019-05-29T22:46:01.878Z,12.87
2019-05-29T22:48:32.742Z,13.10
2019-05-29T22:51:03.614Z,12.98
2019-05-29T22:53:34.450Z,13.29
2019-05-29T22:56:05.225Z,13.39
2019-05-29T22:58:36.000Z,13.34
2019-05-29T23:01:06.811Z,13.20
2019-05-29T23:03:37.582Z,12.95
2019-05-29T23:06:08.353Z,13.02
2019-05-29T23:08:39.140Z,13.33
2019-05-29T23:11:09.916Z,13.04
2019-05-29T23:13:40.699Z,13.27
2019-05-29T23:16:11.473Z,13.32
2019-05-29T23:18:42.246Z,13.09
2019-05-29T23:21:13.023Z,13.18
2019-05-29T23:23:43.795Z,13.02
2019-05-29T23:26:14.563Z,13.01
2019-05-29T23:28:45.330Z,12.92
2019-05-29T23:31:16.250Z,12.82
2019-05-29T23:33:47.009Z,12.66
2019-05-29T23:36:17.808Z,12.77
2019-05-29T23:38:49.384Z,12.85
2019-05-29T23:41:20.171Z,12.65
2019-05-29T23:43:50.947Z,12.50
2019-05-29T23:46:21.725Z,12.42
2019-05-29T23:48:53.507Z,12.50
2019-05-29T23:51:24.279Z,12.25
2019-05-29T23:53:55.633Z,12.29
2019-05-29T23:56:26.578Z,12.20
2019-05-29T23:58:57.748Z,12.08
